createdAt,value
2018-03-15T00:01:54.931Z,99998.06
2018-03-15T00:04:23.061Z,99995.95
2018-03-15T00:06:51.270Z,99995.50
2018-03-15T00:09:19.485Z,99989.08
2018-03-15T00:11:47.618Z,99989.25
2018-03-15T00:14:16.012Z,99990.86
2018-03-15T00:16:44.291Z,99984.55
2018-03-15T00:19:12.468Z,99977.50
2018-03-15T00:21:40.640Z,99973.23
2018-03-15T00:24:08.774Z,99967.35
2018-03-15T00:26:37.055Z,99963.25
2018-03-15T00:29:05.194Z,99965.19
2018-03-15T00:31:33.377Z,99957.11
2018-03-15T00:34:01.509Z,99950.96
2018-03-15T00:36:29.649Z,99949.72
2018-03-15T00:38:57.866Z,99948.66
2018-03-15T00:41:26.015Z,99949.75
2018-03-15T00:43:54.135Z,99941.16
2018-03-15T00:46:22.323Z,99941.19
2018-03-15T00:48:50.478Z,99939.45
2018-03-15T00:51:18.618Z,99934.01
2018-03-15T00:53:46.764Z,99933.43
2018-03-15T00:56:14.951Z,99929.23
2018-03-15T00:58:43.100Z,99924.23
2018-03-15T01:01:11.243Z,99924.26
2018-03-15T01:03:39.412Z,99916.69
2018-03-15T01:06:07.555Z,99919.27
2018-03-15T01:08:35.741Z,99919.27
2018-03-15T01:11:03.882Z,99924.42
2018-03-15T01:13:32.023Z,99919.08
2018-03-15T01:16:00.174Z,99917.98
2018-03-15T01:18:28.343Z,99915.11
2018-03-15T01:20:56.539Z,99910.92
2018-03-15T01:23:24.703Z,99912.75
2018-03-15T01:25:52.837Z,99910.70
2018-03-15T01:28:20.978Z,99910.73
2018-03-15T01:30:49.125Z,99909.72
2018-03-15T01:33:17.289Z,99903.56
2018-03-15T01:35:45.431Z,99902.45
2018-03-15T01:38:13.726Z,99898.45
2018-03-15T01:40:41.899Z,99898.16
2018-03-15T01:43:10.044Z,99893.66
2018-03-15T01:45:38.297Z,99888.86
2018-03-15T01:48:06.525Z,99889.57
2018-03-15T01:50:34.701Z,99884.55
2018-03-15T01:53:02.833Z,99881.36
2018-03-15T01:55:31.010Z,99872.70
2018-03-15T01:57:59.153Z,99869.75
2018-03-15T02:00:27.360Z,99867.89
2018-03-15T02:02:55.519Z,99857.55
2018-03-15T02:05:23.643Z,99850.73
2018-03-15T02:07:51.793Z,99849.63
2018-03-15T02:10:20.055Z,99847.57
2018-03-15T02:12:48.221Z,99842.81
2018-03-15T02:15:16.344Z,99841.59
2018-03-15T02:17:44.464Z,99841.45
2018-03-15T02:20:12.680Z,99833.96
2018-03-15T02:22:40.796Z,99828.62
2018-03-15T02:25:08.923Z,99829.19
2018-03-15T02:27:37.067Z,99821.93
2018-03-15T02:30:05.215Z,99814.30
2018-03-15T02:32:33.346Z,99810.44
2018-03-15T02:35:01.490Z,99798.19
2018-03-15T02:37:29.698Z,99805.45
2018-03-15T02:39:57.833Z,99802.58
2018-03-15T02:42:25.971Z,99798.05
2018-03-15T02:44:54.132Z,99799.39
2018-03-15T02:47:22.394Z,99793.11
2018-03-15T02:49:50.544Z,99795.98
2018-03-15T02:52:18.744Z,99791.67
2018-03-15T02:54:46.869Z,99781.98
2018-03-15T02:57:14.986Z,99780.67
2018-03-15T02:59:43.140Z,99765.32
2018-03-15T03:02:11.272Z,99770.83
2018-03-15T03:04:39.450Z,99765.82
2018-03-15T03:07:07.630Z,99770.47
2018-03-15T03:09:35.780Z,99767.69
2018-03-15T03:12:03.918Z,99763.08
2018-03-15T03:14:32.079Z,99760.28
2018-03-15T03:17:00.204Z,99757.77
2018-03-15T03:19:28.335Z,99759.17
2018-03-15T03:21:56.623Z,99756.20
2018-03-15T03:24:24.767Z,99753.69
2018-03-15T03:26:52.905Z,99754.67
2018-03-15T03:29:21.143Z,99759.67
2018-03-15T03:31:49.396Z,99760.63
2018-03-15T03:34:17.513Z,99751.62
2018-03-15T03:36:45.696Z,99747.04
2018-03-15T03:39:13.806Z,99749.52
2018-03-15T03:41:41.939Z,99740.44
2018-03-15T03:44:10.076Z,99740.78
2018-03-15T03:46:38.214Z,99736.61
2018-03-15T03:49:06.377Z,99722.87
2018-03-15T03:51:34.505Z,99730.28
2018-03-15T03:54:02.639Z,99732.49
2018-03-15T03:56:33.804Z,99729.17
2018-03-15T03:59:01.956Z,99725.47
2018-03-15T04:01:30.128Z,99718.79
2018-03-15T04:03:58.274Z,99721.88
2018-03-15T04:06:26.420Z,99724.47
2018-03-15T04:08:54.551Z,99716.64
2018-03-15T04:11:22.737Z,99703.17
2018-03-15T04:13:50.845Z,99696.64
2018-03-15T04:16:18.989Z,99696.56
2018-03-15T04:18:47.147Z,99691.00
2018-03-15T04:21:15.284Z,99691.45
2018-03-15T04:23:43.466Z,99682.10
2018-03-15T04:26:11.600Z,99681.53
2018-03-15T04:28:39.772Z,99673.52
2018-03-15T04:31:08.014Z,99681.45
2018-03-15T04:33:36.122Z,99662.02
2018-03-15T04:36:04.260Z,99657.95
2018-03-15T04:38:32.390Z,99655.16
2018-03-15T04:41:00.521Z,99647.20
2018-03-15T04:43:28.665Z,99638.90
2018-03-15T04:45:56.832Z,99640.64
2018-03-15T04:48:25.006Z,99634.62
2018-03-15T04:50:53.708Z,99636.03
2018-03-15T04:53:21.849Z,99634.19
2018-03-15T04:55:50.140Z,99634.69
2018-03-15T04:58:18.255Z,99619.48
2018-03-15T05:00:46.407Z,99621.95
2018-03-15T05:03:14.544Z,99626.87
2018-03-15T05:05:42.779Z,99613.95
2018-03-15T05:08:10.869Z,99611.67
2018-03-15T05:10:39.000Z,99615.81
2018-03-15T05:13:07.140Z,99615.52
2018-03-15T05:15:35.271Z,99606.66
2018-03-15T05:18:03.396Z,99597.59
2018-03-15T05:20:31.543Z,99598.74
2018-03-15T05:22:59.662Z,99593.67
2018-03-15T05:25:27.792Z,99593.72
2018-03-15T05:27:55.945Z,99596.23
2018-03-15T05:30:24.073Z,99590.73
2018-03-15T05:32:52.216Z,99593.75
2018-03-15T05:35:20.371Z,99591.12
2018-03-15T05:37:48.767Z,99590.33
2018-03-15T05:40:16.915Z,99578.31
2018-03-15T05:42:45.056Z,99573.32
2018-03-15T05:45:13.201Z,99570.57
2018-03-15T05:47:41.342Z,99568.13
2018-03-15T05:50:09.496Z,99567.02
2018-03-15T05:52:37.619Z,99575.98
2018-03-15T05:55:05.756Z,99578.14
2018-03-15T05:57:33.908Z,99576.77
2018-03-15T06:00:02.041Z,99571.79
2018-03-15T06:02:30.186Z,99573.91
2018-03-15T06:04:58.322Z,99576.06
2018-03-15T06:07:26.492Z,99579.14
2018-03-15T06:09:54.736Z,99569.65
2018-03-15T06:12:22.870Z,99570.38
2018-03-15T06:14:51.010Z,99562.97
2018-03-15T06:17:19.174Z,99556.58
2018-03-15T06:19:47.315Z,99557.64
2018-03-15T06:22:15.441Z,99555.89
2018-03-15T06:24:43.567Z,99553.44
2018-03-15T06:27:11.768Z,99556.30
2018-03-15T06:29:40.296Z,99556.91
2018-03-15T06:32:08.407Z,99556.67
2018-03-15T06:34:36.564Z,99549.72
2018-03-15T06:37:04.698Z,99558.15
2018-03-15T06:39:32.841Z,99554.64
2018-03-15T06:42:01.169Z,99553.93
2018-03-15T06:44:29.298Z,99544.24
2018-03-15T06:46:57.461Z,99550.28
2018-03-15T06:49:25.591Z,99550.89
2018-03-15T06:51:53.730Z,99556.05
2018-03-15T06:54:21.856Z,99557.67
2018-03-15T06:56:49.986Z,99559.80
2018-03-15T06:59:18.139Z,99559.74
2018-03-15T07:01:46.296Z,99567.83
2018-03-15T07:04:14.434Z,99565.13
2018-03-15T07:06:43.425Z,99556.52
2018-03-15T07:09:11.580Z,99554.16
2018-03-15T07:11:39.731Z,99550.21
2018-03-15T07:14:07.863Z,99543.25
2018-03-15T07:16:36.024Z,99549.34
2018-03-15T07:19:04.157Z,99537.98
2018-03-15T07:21:32.293Z,99532.82
2018-03-15T07:24:00.441Z,99534.39
2018-03-15T07:26:28.578Z,99533.88
2018-03-15T07:28:56.699Z,99533.23
2018-03-15T07:31:24.853Z,99531.76
2018-03-15T07:33:53.000Z,99533.67
2018-03-15T07:36:21.133Z,99522.06
2018-03-15T07:38:49.304Z,99517.68
2018-03-15T07:41:17.464Z,99518.16
2018-03-15T07:43:45.607Z,99521.09
2018-03-15T07:46:13.759Z,99523.17
2018-03-15T07:48:41.886Z,99517.11
2018-03-15T07:51:10.034Z,99521.95
2018-03-15T07:53:38.164Z,99520.36
2018-03-15T07:56:06.327Z,99518.27
2018-03-15T07:58:34.487Z,99512.50
2018-03-15T08:01:02.617Z,99517.06
2018-03-15T08:03:30.768Z,99520.85
2018-03-15T08:05:58.930Z,99519.05
2018-03-15T08:08:27.082Z,99518.25
2018-03-15T08:10:55.241Z,99508.81
2018-03-15T08:13:23.454Z,99509.81
2018-03-15T08:15:51.625Z,99502.77
2018-03-15T08:18:19.757Z,99501.73
2018-03-15T08:20:48.004Z,99501.48
2018-03-15T08:23:16.126Z,99492.23
2018-03-15T08:25:44.263Z,99499.19
2018-03-15T08:28:12.383Z,99500.31
2018-03-15T08:30:40.511Z,99490.69
2018-03-15T08:33:08.641Z,99485.69
2018-03-15T08:35:36.790Z,99481.14
2018-03-15T08:38:04.912Z,99475.77
2018-03-15T08:40:33.696Z,99483.23
2018-03-15T08:43:01.816Z,99482.30
2018-03-15T08:45:29.959Z,99469.16
2018-03-15T08:47:58.093Z,99478.06
2018-03-15T08:50:26.237Z,99471.94
2018-03-15T08:52:54.376Z,99455.92
2018-03-15T08:55:22.521Z,99448.58
2018-03-15T08:57:50.646Z,99461.25
2018-03-15T09:00:18.801Z,99454.70
2018-03-15T09:02:46.950Z,99457.78
2018-03-15T09:05:15.082Z,99446.81
2018-03-15T09:07:43.253Z,99447.41
2018-03-15T09:10:11.434Z,99442.18
2018-03-15T09:12:39.626Z,99438.35
2018-03-15T09:15:07.769Z,99436.44
2018-03-15T09:17:35.929Z,99430.36
2018-03-15T09:20:04.072Z,99422.05
2018-03-15T09:22:32.192Z,99422.67
2018-03-15T09:25:00.329Z,99413.39
2018-03-15T09:27:28.479Z,99417.98
2018-03-15T09:29:56.633Z,99419.75
2018-03-15T09:32:24.764Z,99415.31
2018-03-15T09:34:52.924Z,99411.09
2018-03-15T09:37:21.030Z,99406.91
2018-03-15T09:39:49.152Z,99406.22
2018-03-15T09:42:17.289Z,99405.80
2018-03-15T09:44:45.435Z,99396.63
2018-03-15T09:47:13.583Z,99392.44
2018-03-15T09:49:41.729Z,99378.28
2018-03-15T09:52:09.876Z,99372.97
2018-03-15T09:54:38.006Z,99370.80
2018-03-15T09:57:06.137Z,99357.42
2018-03-15T09:59:34.277Z,99366.73
2018-03-15T10:02:02.430Z,99358.66
2018-03-15T10:04:30.584Z,99363.89
2018-03-15T10:06:58.712Z,99358.44
2018-03-15T10:09:26.857Z,99356.48
2018-03-15T10:11:54.978Z,99350.86
2018-03-15T10:14:23.125Z,99350.09
2018-03-15T10:16:51.315Z,99348.73
2018-03-15T10:19:19.486Z,99353.98
2018-03-15T10:21:47.648Z,99350.87
2018-03-15T10:24:15.779Z,99353.16
2018-03-15T10:26:43.890Z,99353.02
2018-03-15T10:29:12.048Z,99349.77
2018-03-15T10:31:40.193Z,99349.08
2018-03-15T10:34:08.328Z,99345.74
2018-03-15T10:36:36.450Z,99339.25
2018-03-15T10:39:04.578Z,99346.58
2018-03-15T10:41:32.721Z,99344.84
2018-03-15T10:44:00.847Z,99338.94
2018-03-15T10:46:28.995Z,99341.80
2018-03-15T10:48:57.174Z,99338.93
2018-03-15T10:51:25.324Z,99340.47
2018-03-15T10:53:53.464Z,99338.83
2018-03-15T10:56:21.624Z,99329.41
2018-03-15T10:58:49.764Z,99330.60
2018-03-15T11:01:22.876Z,99321.66
2018-03-15T11:03:51.013Z,99321.94
2018-03-15T11:06:24.727Z,99314.04
2018-03-15T11:08:58.709Z,99311.50
2018-03-15T11:11:26.820Z,99312.72
2018-03-15T11:13:54.956Z,99312.34
2018-03-15T11:16:23.116Z,99311.97
2018-03-15T11:18:51.251Z,99317.35
2018-03-15T11:21:19.393Z,99312.20
2018-03-15T11:23:47.573Z,99306.87
2018-03-15T11:26:15.637Z,99311.16
2018-03-15T11:28:43.775Z,99304.81
2018-03-15T11:31:11.923Z,99310.75
2018-03-15T11:33:40.081Z,99297.33
2018-03-15T11:36:08.226Z,99285.16
2018-03-15T11:38:36.386Z,99291.16
2018-03-15T11:41:04.506Z,99286.11
2018-03-15T11:43:35.712Z,99288.02
2018-03-15T11:46:03.842Z,99295.25
2018-03-15T11:48:31.990Z,99287.97
2018-03-15T11:51:00.205Z,99285.65
2018-03-15T11:53:28.388Z,99280.11
2018-03-15T11:55:56.551Z,99279.69
2018-03-15T11:58:24.681Z,99281.89
2018-03-15T12:00:53.417Z,99281.33
2018-03-15T12:03:21.552Z,99269.98
2018-03-15T12:05:49.692Z,99265.17
2018-03-15T12:08:17.828Z,99266.34
2018-03-15T12:10:45.956Z,99273.11
2018-03-15T12:13:14.111Z,99268.45
2018-03-15T12:15:46.080Z,99269.94
2018-03-15T12:18:14.237Z,99265.77
2018-03-15T12:20:42.367Z,99260.50
2018-03-15T12:23:10.500Z,99260.03
2018-03-15T12:25:38.638Z,99269.66
2018-03-15T12:28:06.787Z,99263.52
2018-03-15T12:30:34.900Z,99257.70
2018-03-15T12:33:03.042Z,99255.61
2018-03-15T12:35:31.162Z,99257.36
2018-03-15T12:37:59.311Z,99249.08
2018-03-15T12:40:27.437Z,99244.27
2018-03-15T12:42:55.612Z,99242.58
2018-03-15T12:45:23.747Z,99237.70
2018-03-15T12:47:51.873Z,99231.06
2018-03-15T12:50:19.991Z,99232.66
2018-03-15T12:52:48.133Z,99228.98
2018-03-15T12:55:16.271Z,99230.58
2018-03-15T12:57:44.396Z,99225.56
2018-03-15T13:00:12.562Z,99226.63
2018-03-15T13:02:40.667Z,99224.35
2018-03-15T13:05:08.829Z,99224.00
2018-03-15T13:07:36.968Z,99214.47
2018-03-15T13:10:05.099Z,99210.34
2018-03-15T13:12:33.246Z,99208.73
2018-03-15T13:15:01.378Z,99213.77
2018-03-15T13:17:29.532Z,99215.98
2018-03-15T13:19:57.665Z,99213.93
2018-03-15T13:22:25.793Z,99214.92
2018-03-15T13:24:53.956Z,99216.00
2018-03-15T13:27:22.082Z,99218.30
2018-03-15T13:29:50.217Z,99214.85
2018-03-15T13:32:18.412Z,99213.19
2018-03-15T13:34:46.470Z,99209.27
2018-03-15T13:37:14.617Z,99213.06
2018-03-15T13:39:42.750Z,99213.28
2018-03-15T13:42:10.895Z,99209.34
2018-03-15T13:44:39.029Z,99206.78
2018-03-15T13:47:07.194Z,99203.78
2018-03-15T13:49:35.323Z,99205.23
2018-03-15T13:52:03.495Z,99192.73
2018-03-15T13:54:31.606Z,99193.17
2018-03-15T13:56:59.725Z,99191.55
2018-03-15T13:59:27.871Z,99194.65
2018-03-15T14:01:56.012Z,99197.93
2018-03-15T14:04:24.173Z,99192.95
2018-03-15T14:06:52.300Z,99196.70
2018-03-15T14:09:20.434Z,99195.22
2018-03-15T14:11:48.558Z,99199.14
2018-03-15T14:14:16.681Z,99203.39
2018-03-15T14:16:44.820Z,99206.61
2018-03-15T14:19:13.066Z,99207.84
2018-03-15T14:21:41.173Z,99210.31
2018-03-15T14:24:09.326Z,99208.41
2018-03-15T14:26:37.463Z,99201.50
2018-03-15T14:29:05.614Z,99204.02
2018-03-15T14:31:33.775Z,99200.67
2018-03-15T14:34:01.909Z,99202.66
2018-03-15T14:36:30.051Z,99201.56
2018-03-15T14:38:58.203Z,99197.41
2018-03-15T14:41:26.358Z,99197.02
2018-03-15T14:43:54.508Z,99192.98
2018-03-15T14:46:22.617Z,99204.68
2018-03-15T14:48:50.782Z,99202.90
2018-03-15T14:51:18.931Z,99191.06
2018-03-15T14:53:47.034Z,99182.42
2018-03-15T14:56:15.189Z,99180.41
2018-03-15T14:58:43.305Z,99177.56
2018-03-15T15:01:11.441Z,99167.73
2018-03-15T15:03:39.575Z,99176.27
2018-03-15T15:06:07.723Z,99173.95
2018-03-15T15:08:35.846Z,99174.05
2018-03-15T15:11:03.978Z,99171.49
2018-03-15T15:13:32.129Z,99157.81
2018-03-15T15:16:00.271Z,99164.80
2018-03-15T15:18:28.414Z,99161.20
2018-03-15T15:20:56.542Z,99166.38
2018-03-15T15:23:24.677Z,99164.08
2018-03-15T15:25:52.817Z,99163.82
2018-03-15T15:28:20.968Z,99168.34
2018-03-15T15:30:49.089Z,99164.57
2018-03-15T15:33:17.225Z,99165.94
2018-03-15T15:35:45.372Z,99164.96
2018-03-15T15:38:13.474Z,99166.80
2018-03-15T15:40:41.641Z,99178.09
2018-03-15T15:43:09.758Z,99185.75
2018-03-15T15:45:43.481Z,99186.78
2018-03-15T15:48:11.815Z,99183.66
2018-03-15T15:50:39.997Z,99180.95
2018-03-15T15:53:08.145Z,99180.41
2018-03-15T15:55:36.288Z,99185.30
2018-03-15T15:58:04.427Z,99185.14
2018-03-15T16:00:32.543Z,99192.87
2018-03-15T16:03:00.682Z,99200.89
2018-03-15T16:05:31.934Z,99199.38
2018-03-15T16:08:00.076Z,99199.92
2018-03-15T16:10:28.209Z,99199.78
2018-03-15T16:12:56.330Z,99198.28
2018-03-15T16:15:24.476Z,99194.57
2018-03-15T16:17:52.608Z,99200.53
2018-03-15T16:20:20.733Z,99206.59
2018-03-15T16:22:48.893Z,99203.50
2018-03-15T16:25:17.016Z,99208.24
2018-03-15T16:27:45.146Z,99205.59
2018-03-15T16:30:13.281Z,99211.83
2018-03-15T16:32:41.425Z,99204.67
2018-03-15T16:35:09.587Z,99211.52
2018-03-15T16:37:37.710Z,99220.20
2018-03-15T16:40:05.840Z,99229.30
2018-03-15T16:42:33.977Z,99224.44
2018-03-15T16:45:02.154Z,99231.34
2018-03-15T16:47:30.295Z,99240.14
2018-03-15T16:49:58.431Z,99240.45
2018-03-15T16:52:26.564Z,99237.66
2018-03-15T16:54:54.719Z,99243.02
2018-03-15T16:57:22.890Z,99244.53
2018-03-15T16:59:51.019Z,99252.27
2018-03-15T17:02:19.173Z,99248.23
2018-03-15T17:04:47.322Z,99245.39
2018-03-15T17:07:15.456Z,99253.13
2018-03-15T17:09:43.642Z,99258.52
2018-03-15T17:12:11.815Z,99252.84
2018-03-15T17:14:39.923Z,99258.92
2018-03-15T17:17:08.051Z,99255.44
2018-03-15T17:19:36.170Z,99260.83
2018-03-15T17:22:04.313Z,99253.55
2018-03-15T17:24:32.479Z,99255.88
2018-03-15T17:27:04.356Z,99256.81
2018-03-15T17:29:32.487Z,99261.28
2018-03-15T17:32:00.642Z,99254.92
2018-03-15T17:34:28.852Z,99260.33
2018-03-15T17:36:56.999Z,99256.42
2018-03-15T17:39:25.158Z,99257.24
2018-03-15T17:41:53.302Z,99260.05
2018-03-15T17:44:24.392Z,99261.13
2018-03-15T17:46:52.535Z,99257.23
2018-03-15T17:49:20.665Z,99265.44
2018-03-15T17:51:50.723Z,99263.70
2018-03-15T17:54:18.856Z,99257.34
2018-03-15T17:56:46.993Z,99263.84
2018-03-15T17:59:15.125Z,99263.02
2018-03-15T18:01:43.252Z,99267.76
2018-03-15T18:04:11.410Z,99275.02
2018-03-15T18:06:39.628Z,99272.73
2018-03-15T18:09:07.776Z,99281.48
2018-03-15T18:11:35.887Z,99286.64
2018-03-15T18:14:04.042Z,99287.44
2018-03-15T18:16:32.178Z,99294.45
2018-03-15T18:19:00.316Z,99297.67
2018-03-15T18:21:28.459Z,99299.30
2018-03-15T18:23:56.585Z,99301.47
2018-03-15T18:26:24.719Z,99298.22
2018-03-15T18:28:52.855Z,99309.95
2018-03-15T18:31:20.994Z,99306.44
2018-03-15T18:33:49.102Z,99306.31
2018-03-15T18:36:17.257Z,99302.95
2018-03-15T18:38:45.408Z,99303.60
2018-03-15T18:41:13.552Z,99309.00
2018-03-15T18:43:42.600Z,99310.08
2018-03-15T18:46:10.719Z,99305.73
2018-03-15T18:48:38.862Z,99311.96
2018-03-15T18:51:07.002Z,99318.00
2018-03-15T18:53:35.133Z,99312.33
2018-03-15T18:56:03.264Z,99316.38
2018-03-15T18:58:31.482Z,99325.16
2018-03-15T19:00:59.615Z,99318.26
2018-03-15T19:03:27.731Z,99331.62
2018-03-15T19:05:55.913Z,99328.11
2018-03-15T19:08:24.064Z,99328.09
2018-03-15T19:10:52.205Z,99326.89
2018-03-15T19:13:20.780Z,99333.61
2018-03-15T19:15:48.911Z,99336.68
2018-03-15T19:18:17.046Z,99345.86
2018-03-15T19:20:45.151Z,99343.81
2018-03-15T19:23:13.304Z,99350.98
2018-03-15T19:25:41.524Z,99347.75
2018-03-15T19:28:09.640Z,99350.58
2018-03-15T19:30:37.782Z,99356.84
2018-03-15T19:33:05.929Z,99360.16
2018-03-15T19:35:34.103Z,99368.98
2018-03-15T19:38:02.228Z,99371.30
2018-03-15T19:40:30.356Z,99370.03
2018-03-15T19:42:58.477Z,99372.44
2018-03-15T19:45:26.617Z,99373.59
2018-03-15T19:47:54.754Z,99386.16
2018-03-15T19:50:22.896Z,99382.31
2018-03-15T19:52:51.041Z,99391.30
2018-03-15T19:55:19.165Z,99395.58
2018-03-15T19:57:47.278Z,99394.30
2018-03-15T20:00:15.432Z,99395.77
2018-03-15T20:02:43.558Z,99400.41
2018-03-15T20:05:11.717Z,99402.25
2018-03-15T20:07:39.864Z,99401.50
2018-03-15T20:10:08.016Z,99405.14
2018-03-15T20:12:36.169Z,99408.80
2018-03-15T20:15:04.318Z,99401.52
2018-03-15T20:17:32.444Z,99408.40
2018-03-15T20:20:00.585Z,99408.91
2018-03-15T20:22:34.305Z,99403.39
2018-03-15T20:25:02.451Z,99403.81
2018-03-15T20:27:36.282Z,99403.45
2018-03-15T20:30:04.519Z,99398.20
2018-03-15T20:32:38.100Z,99401.25
2018-03-15T20:35:06.221Z,99403.58
2018-03-15T20:37:34.357Z,99400.22
2018-03-15T20:40:07.995Z,99401.66
2018-03-15T20:42:36.151Z,99401.47
2018-03-15T20:45:04.295Z,99404.86
2018-03-15T20:47:37.888Z,99403.68
2018-03-15T20:50:06.014Z,99405.36
2018-03-15T20:52:34.160Z,99399.59
2018-03-15T20:55:02.347Z,99400.61
2018-03-15T20:57:30.417Z,99402.10
2018-03-15T20:59:58.584Z,99398.77
2018-03-15T21:02:26.706Z,99393.00
2018-03-15T21:04:54.917Z,99399.42
2018-03-15T21:07:23.037Z,99391.43
2018-03-15T21:09:51.172Z,99394.14
2018-03-15T21:12:19.319Z,99393.84
2018-03-15T21:14:47.460Z,99388.01
2018-03-15T21:17:15.635Z,99392.92
2018-03-15T21:19:47.085Z,99387.52
2018-03-15T21:22:15.254Z,99384.88
2018-03-15T21:24:43.399Z,99388.55
2018-03-15T21:27:11.601Z,99377.88
2018-03-15T21:29:39.686Z,99383.23
2018-03-15T21:32:07.820Z,99373.22
2018-03-15T21:34:35.954Z,99375.62
2018-03-15T21:37:04.111Z,99374.77
2018-03-15T21:39:32.258Z,99381.97
2018-03-15T21:42:00.410Z,99374.29
2018-03-15T21:44:28.679Z,99374.78
2018-03-15T21:46:56.852Z,99383.55
2018-03-15T21:49:24.993Z,99376.75
2018-03-15T21:51:53.207Z,99382.00
2018-03-15T21:54:21.372Z,99381.41
2018-03-15T21:56:49.509Z,99380.17
2018-03-15T21:59:17.663Z,99381.09
2018-03-15T22:01:45.872Z,99379.59
2018-03-15T22:04:14.043Z,99372.97
2018-03-15T22:06:42.195Z,99371.91
2018-03-15T22:09:10.320Z,99368.18
2018-03-15T22:11:38.588Z,99367.23
2018-03-15T22:14:06.697Z,99373.63
2018-03-15T22:16:34.826Z,99370.63
2018-03-15T22:19:02.989Z,99365.38
2018-03-15T22:21:31.134Z,99362.20
2018-03-15T22:23:59.286Z,99362.97
2018-03-15T22:26:27.417Z,99363.22
2018-03-15T22:28:55.578Z,99366.35
2018-03-15T22:31:23.718Z,99362.27
2018-03-15T22:33:51.922Z,99363.09
2018-03-15T22:36:20.056Z,99364.65
2018-03-15T22:38:48.180Z,99368.27
2018-03-15T22:41:16.320Z,99365.80
2018-03-15T22:43:44.482Z,99375.73
2018-03-15T22:46:12.614Z,99370.63
2018-03-15T22:48:40.760Z,99370.55
2018-03-15T22:51:08.892Z,99369.56
2018-03-15T22:53:37.010Z,99373.16
2018-03-15T22:56:05.183Z,99375.78
2018-03-15T22:58:33.295Z,99378.95
2018-03-15T23:01:01.441Z,99384.22
2018-03-15T23:03:29.602Z,99384.88
2018-03-15T23:05:57.741Z,99387.27
2018-03-15T23:08:25.873Z,99385.54
2018-03-15T23:10:54.479Z,99390.14
2018-03-15T23:13:22.620Z,99392.78
2018-03-15T23:15:50.822Z,99395.38
2018-03-15T23:18:18.960Z,99391.39
2018-03-15T23:20:47.071Z,99395.78
2018-03-15T23:23:15.216Z,99405.87
2018-03-15T23:25:43.342Z,99406.20
2018-03-15T23:28:11.479Z,99398.72
2018-03-15T23:30:39.617Z,99404.29
2018-03-15T23:33:07.746Z,99403.94
2018-03-15T23:35:35.879Z,99405.43
2018-03-15T23:38:04.025Z,99409.11
2018-03-15T23:40:32.193Z,99413.05
2018-03-15T23:43:00.336Z,99405.98
2018-03-15T23:45:28.486Z,99412.34
2018-03-15T23:47:56.635Z,99416.45
2018-03-15T23:50:24.765Z,99410.45
2018-03-15T23:52:52.896Z,99403.84
2018-03-15T23:55:21.032Z,99414.11
2018-03-15T23:57:49.207Z,99413.02
